createdAt,value
2018-06-08T00:00:47.035Z,967.94
2018-06-08T00:01:47.056Z,967.92
2018-06-08T00:02:47.107Z,967.90
2018-06-08T00:03:47.155Z,967.89
2018-06-08T00:04:47.207Z,967.93
2018-06-08T00:05:47.287Z,967.89
2018-06-08T00:06:47.308Z,967.95
2018-06-08T00:07:47.359Z,967.92
2018-06-08T00:08:47.408Z,967.93
2018-06-08T00:09:47.459Z,967.93
2018-06-08T00:10:47.747Z,967.90
2018-06-08T00:11:47.583Z,967.93
2018-06-08T00:12:47.616Z,967.93
2018-06-08T00:13:47.664Z,967.94
2018-06-08T00:14:47.714Z,967.93
2018-06-08T00:15:47.770Z,967.91
2018-06-08T00:16:47.840Z,967.89
2018-06-08T00:17:47.866Z,967.86
2018-06-08T00:18:47.922Z,967.84
2018-06-08T00:19:47.968Z,967.75
2018-06-08T00:20:48.017Z,967.74
2018-06-08T00:21:48.106Z,967.73
2018-06-08T00:22:48.117Z,967.66
2018-06-08T00:23:48.167Z,967.68
2018-06-08T00:24:48.217Z,967.63
2018-06-08T00:25:48.277Z,967.58
2018-06-08T00:26:48.345Z,967.58
2018-06-08T00:27:48.398Z,967.56
2018-06-08T00:28:48.421Z,967.55
2018-06-08T00:29:48.473Z,967.55
2018-06-08T00:30:48.522Z,967.57
2018-06-08T00:31:48.572Z,967.57
2018-06-08T00:32:48.646Z,967.55
2018-06-08T00:33:48.676Z,967.58
2018-06-08T00:34:48.732Z,967.51
2018-06-08T00:35:48.775Z,967.51
2018-06-08T00:36:48.826Z,967.48
2018-06-08T00:37:48.906Z,967.44
2018-06-08T00:38:48.925Z,967.41
2018-06-08T00:39:48.979Z,967.38
2018-06-08T00:40:49.027Z,967.33
2018-06-08T00:41:49.089Z,967.28
2018-06-08T00:42:49.182Z,967.31
2018-06-08T00:43:49.179Z,967.28
2018-06-08T00:44:49.241Z,967.24
2018-06-08T00:45:49.282Z,967.26
2018-06-08T00:46:49.341Z,967.27
2018-06-08T00:47:49.414Z,967.27
2018-06-08T00:48:49.429Z,967.25
2018-06-08T00:49:49.483Z,967.26
2018-06-08T00:50:49.532Z,967.27
2018-06-08T00:51:49.587Z,967.23
2018-06-08T00:52:49.661Z,967.21
2018-06-08T00:53:49.687Z,967.20
2018-06-08T00:54:49.735Z,967.19
2018-06-08T00:55:49.787Z,967.18
2018-06-08T00:56:49.838Z,967.16
2018-06-08T00:57:49.923Z,967.16
2018-06-08T00:58:49.938Z,967.14
2018-06-08T00:59:49.989Z,967.12
2018-06-08T01:00:50.039Z,967.09
2018-06-08T01:01:50.085Z,967.12
2018-06-08T01:02:50.168Z,967.09
2018-06-08T01:03:50.188Z,967.11
2018-06-08T01:04:50.238Z,967.09
2018-06-08T01:05:50.287Z,967.06
2018-06-08T01:06:50.339Z,967.08
2018-06-08T01:07:50.419Z,967.02
2018-06-08T01:08:50.437Z,967.00
2018-06-08T01:09:50.488Z,966.98
2018-06-08T01:10:50.539Z,966.98
2018-06-08T01:11:50.589Z,966.96
2018-06-08T01:12:50.670Z,966.93
2018-06-08T01:13:50.690Z,966.90
2018-06-08T01:14:50.770Z,966.86
2018-06-08T01:15:50.790Z,966.87
2018-06-08T01:16:50.852Z,966.87
2018-06-08T01:17:50.891Z,966.89
2018-06-08T01:18:50.963Z,966.87
2018-06-08T01:19:51.266Z,966.88
2018-06-08T01:20:51.040Z,966.88
2018-06-08T01:21:51.093Z,966.90
2018-06-08T01:22:51.140Z,966.95
2018-06-08T01:23:51.217Z,967.00
2018-06-08T01:24:51.242Z,966.98
2018-06-08T01:25:51.292Z,967.00
2018-06-08T01:26:51.340Z,966.97
2018-06-08T01:27:51.392Z,967.06
2018-06-08T01:28:51.482Z,967.03
2018-06-08T01:29:51.497Z,967.05
2018-06-08T01:30:51.543Z,967.03
2018-06-08T01:31:51.592Z,967.04
2018-06-08T01:32:51.690Z,967.05
2018-06-08T01:33:51.723Z,967.04
2018-06-08T01:34:51.745Z,967.06
2018-06-08T01:35:51.794Z,967.05
2018-06-08T01:36:51.842Z,967.07
2018-06-08T01:37:51.901Z,967.11
2018-06-08T01:38:51.974Z,967.15
2018-06-08T01:39:51.997Z,967.13
2018-06-08T01:40:52.046Z,967.20
2018-06-08T01:41:52.094Z,967.17
2018-06-08T01:42:52.153Z,967.21
2018-06-08T01:43:52.240Z,967.24
2018-06-08T01:44:52.242Z,967.23
2018-06-08T01:45:52.293Z,967.24
2018-06-08T01:46:52.345Z,967.22
2018-06-08T01:47:52.397Z,967.25
2018-06-08T01:48:52.475Z,967.28
2018-06-08T01:49:52.497Z,967.31
2018-06-08T01:50:52.547Z,967.31
2018-06-08T01:51:52.594Z,967.34
2018-06-08T01:52:52.646Z,967.35
2018-06-08T01:53:52.722Z,967.36
2018-06-08T01:54:52.745Z,967.37
2018-06-08T01:55:52.796Z,967.41
2018-06-08T01:56:52.846Z,967.40
2018-06-08T01:57:52.894Z,967.41
2018-06-08T01:58:52.986Z,967.45
2018-06-08T01:59:52.997Z,967.44
2018-06-08T02:00:53.076Z,967.43
2018-06-08T02:01:53.124Z,967.40
2018-06-08T02:02:53.145Z,967.43
2018-06-08T02:03:53.195Z,967.42
2018-06-08T02:04:53.270Z,967.42
2018-06-08T02:05:53.295Z,967.43
2018-06-08T02:06:53.345Z,967.42
2018-06-08T02:07:53.397Z,967.42
2018-06-08T02:08:53.446Z,967.41
2018-06-08T02:09:53.517Z,967.43
2018-06-08T02:10:53.546Z,967.47
2018-06-08T02:11:53.597Z,967.47
2018-06-08T02:12:53.645Z,967.51
2018-06-08T02:13:53.723Z,967.51
2018-06-08T02:14:53.746Z,967.49
2018-06-08T02:15:53.821Z,967.52
2018-06-08T02:16:53.847Z,967.53
2018-06-08T02:17:53.895Z,967.50
2018-06-08T02:18:53.985Z,967.49
2018-06-08T02:19:53.996Z,967.50
2018-06-08T02:20:54.045Z,967.51
2018-06-08T02:21:54.101Z,967.54
2018-06-08T02:22:54.149Z,967.49
2018-06-08T02:23:54.221Z,967.54
2018-06-08T02:24:54.246Z,967.48
2018-06-08T02:25:54.301Z,967.46
2018-06-08T02:26:54.372Z,967.50
2018-06-08T02:27:54.397Z,967.47
2018-06-08T02:28:54.450Z,967.47
2018-06-08T02:29:54.497Z,967.50
2018-06-08T02:30:54.548Z,967.45
2018-06-08T02:31:54.624Z,967.47
2018-06-08T02:32:54.647Z,967.44
2018-06-08T02:33:54.697Z,967.40
2018-06-08T02:34:54.785Z,967.42
2018-06-08T02:35:54.803Z,967.37
2018-06-08T02:36:54.849Z,967.40
2018-06-08T02:37:54.907Z,967.38
2018-06-08T02:38:54.951Z,967.38
2018-06-08T02:39:55.035Z,967.33
2018-06-08T02:40:55.056Z,967.38
2018-06-08T02:41:55.101Z,967.38
2018-06-08T02:42:55.153Z,967.34
2018-06-08T02:43:55.200Z,967.37
2018-06-08T02:44:55.289Z,967.35
2018-06-08T02:45:55.299Z,967.37
2018-06-08T02:46:55.374Z,967.36
2018-06-08T02:47:55.399Z,967.35
2018-06-08T02:48:55.449Z,967.32
2018-06-08T02:49:55.539Z,967.31
2018-06-08T02:50:55.551Z,967.29
2018-06-08T02:51:55.632Z,967.29
2018-06-08T02:52:55.652Z,967.34
2018-06-08T02:53:55.702Z,967.31
2018-06-08T02:54:55.817Z,967.32
2018-06-08T02:55:55.809Z,967.30
2018-06-08T02:56:55.877Z,967.29
2018-06-08T02:57:55.905Z,967.30
2018-06-08T02:58:55.957Z,967.26
2018-06-08T02:59:56.005Z,967.29
2018-06-08T03:00:56.074Z,967.29
2018-06-08T03:01:56.100Z,967.25
2018-06-08T03:02:56.154Z,967.24
2018-06-08T03:03:56.209Z,967.19
2018-06-08T03:04:56.251Z,967.19
2018-06-08T03:05:56.341Z,967.16
2018-06-08T03:06:56.362Z,967.17
2018-06-08T03:07:56.427Z,967.16
2018-06-08T03:08:56.452Z,967.14
2018-06-08T03:09:56.506Z,967.14
2018-06-08T03:10:56.555Z,967.10
2018-06-08T03:11:56.604Z,967.08
2018-06-08T03:12:56.676Z,967.06
2018-06-08T03:13:56.704Z,967.04
2018-06-08T03:14:56.756Z,967.04
2018-06-08T03:15:56.805Z,967.04
2018-06-08T03:16:56.854Z,967.05
2018-06-08T03:17:56.929Z,967.05
2018-06-08T03:18:56.955Z,967.04
2018-06-08T03:19:57.006Z,967.08
2018-06-08T03:20:57.055Z,967.09
2018-06-08T03:21:57.109Z,967.14
2018-06-08T03:22:57.183Z,967.14
2018-06-08T03:23:57.208Z,967.17
2018-06-08T03:24:57.256Z,967.16
2018-06-08T03:25:57.306Z,967.14
2018-06-08T03:26:57.387Z,967.13
2018-06-08T03:27:57.406Z,967.13
2018-06-08T03:28:57.457Z,967.12
2018-06-08T03:29:57.508Z,967.06
2018-06-08T03:30:57.556Z,967.09
2018-06-08T03:31:57.648Z,967.08
2018-06-08T03:32:57.656Z,967.05
2018-06-08T03:33:57.736Z,967.05
2018-06-08T03:34:57.758Z,967.08
2018-06-08T03:35:57.859Z,967.11
2018-06-08T03:36:57.856Z,967.10
2018-06-08T03:37:57.939Z,967.13
2018-06-08T03:38:57.961Z,967.11
2018-06-08T03:39:58.006Z,967.15
2018-06-08T03:40:58.057Z,967.15
2018-06-08T03:41:58.969Z,967.16
2018-06-08T03:42:58.183Z,967.17
2018-06-08T03:43:58.255Z,967.17
2018-06-08T03:44:58.258Z,967.19
2018-06-08T03:45:58.309Z,967.22
2018-06-08T03:46:58.358Z,967.25
2018-06-08T03:47:58.409Z,967.28
2018-06-08T03:48:58.516Z,967.29
2018-06-08T03:49:58.508Z,967.30
2018-06-08T03:50:58.561Z,967.32
2018-06-08T03:51:58.609Z,967.30
2018-06-08T03:52:58.657Z,967.31
2018-06-08T03:53:58.746Z,967.28
2018-06-08T03:54:58.761Z,967.23
2018-06-08T03:55:58.862Z,967.26
2018-06-08T03:56:58.857Z,967.22
2018-06-08T03:57:58.908Z,967.21
2018-06-08T03:58:58.982Z,967.20
2018-06-08T03:59:59.041Z,967.22
2018-06-08T04:00:59.059Z,967.19
2018-06-08T04:01:59.113Z,967.14
2018-06-08T04:02:59.161Z,967.15
2018-06-08T04:03:59.210Z,967.17
2018-06-08T04:04:59.301Z,967.16
2018-06-08T04:05:59.310Z,967.15
2018-06-08T04:06:59.359Z,967.15
2018-06-08T04:07:59.409Z,967.19
2018-06-08T04:08:59.458Z,967.19
2018-06-08T04:09:59.532Z,967.22
2018-06-08T04:10:59.560Z,967.22
2018-06-08T04:11:59.611Z,967.21
2018-06-08T04:12:59.663Z,967.25
2018-06-08T04:13:59.710Z,967.17
2018-06-08T04:14:59.794Z,967.21
2018-06-08T04:15:59.812Z,967.20
2018-06-08T04:16:59.860Z,967.23
2018-06-08T04:17:59.913Z,967.22
2018-06-08T04:18:59.965Z,967.24
2018-06-08T04:20:00.051Z,967.22
2018-06-08T04:21:00.062Z,967.24
2018-06-08T04:22:00.110Z,967.26
2018-06-08T04:23:00.160Z,967.28
2018-06-08T04:24:00.211Z,967.28
2018-06-08T04:25:00.309Z,967.32
2018-06-08T04:26:00.335Z,967.34
2018-06-08T04:27:00.362Z,967.36
2018-06-08T04:28:00.413Z,967.36
2018-06-08T04:29:00.461Z,967.34
2018-06-08T04:30:00.515Z,967.36
2018-06-08T04:31:00.588Z,967.36
2018-06-08T04:32:00.611Z,967.37
2018-06-08T04:33:00.687Z,967.37
2018-06-08T04:34:00.713Z,967.38
2018-06-08T04:35:00.764Z,967.44
2018-06-08T04:36:00.838Z,967.47
2018-06-08T04:37:00.863Z,967.50
2018-06-08T04:38:00.911Z,967.53
2018-06-08T04:39:00.962Z,967.58
2018-06-08T04:40:01.015Z,967.59
2018-06-08T04:41:01.091Z,967.64
2018-06-08T04:42:01.115Z,967.67
2018-06-08T04:43:01.169Z,967.71
2018-06-08T04:44:01.213Z,967.69
2018-06-08T04:45:01.271Z,967.74
2018-06-08T04:46:01.346Z,967.75
2018-06-08T04:47:01.364Z,967.80
2018-06-08T04:48:01.414Z,967.84
2018-06-08T04:49:01.463Z,967.88
2018-06-08T04:50:01.513Z,967.90
2018-06-08T04:51:02.485Z,967.92
2018-06-08T04:52:01.613Z,967.95
2018-06-08T04:53:01.664Z,967.94
2018-06-08T04:54:01.718Z,967.95
2018-06-08T04:55:01.765Z,968.01
2018-06-08T04:56:01.849Z,967.96
2018-06-08T04:57:01.871Z,967.99
2018-06-08T04:58:01.917Z,967.95
2018-06-08T04:59:01.970Z,967.99
2018-06-08T05:00:02.024Z,967.97
2018-06-08T05:01:02.113Z,967.95
2018-06-08T05:02:02.118Z,967.95
2018-06-08T05:03:02.175Z,967.96
2018-06-08T05:04:02.218Z,967.99
2018-06-08T05:05:02.270Z,967.95
2018-06-08T05:06:02.375Z,967.97
2018-06-08T05:07:02.368Z,967.98
2018-06-08T05:08:02.419Z,968.02
2018-06-08T05:09:02.470Z,968.00
2018-06-08T05:10:02.522Z,968.06
2018-06-08T05:11:02.606Z,968.10
2018-06-08T05:12:02.620Z,968.10
2018-06-08T05:13:02.669Z,968.11
2018-06-08T05:14:02.720Z,968.14
2018-06-08T05:15:02.772Z,968.11
2018-06-08T05:16:02.855Z,968.10
2018-06-08T05:17:02.872Z,968.08
2018-06-08T05:18:02.925Z,968.04
2018-06-08T05:19:02.973Z,968.00
2018-06-08T05:20:03.030Z,968.02
2018-06-08T05:21:03.117Z,968.01
2018-06-08T05:22:03.126Z,968.01
2018-06-08T05:23:03.180Z,967.99
2018-06-08T05:24:03.236Z,968.00
2018-06-08T05:25:03.277Z,968.02
2018-06-08T05:26:03.360Z,968.00
2018-06-08T05:27:03.379Z,967.97
2018-06-08T05:28:03.431Z,967.99
2018-06-08T05:29:03.482Z,968.05
2018-06-08T05:30:03.534Z,968.02
2018-06-08T05:31:03.605Z,967.99
2018-06-08T05:32:03.633Z,968.04
2018-06-08T05:33:03.719Z,968.01
2018-06-08T05:34:03.737Z,968.03
2018-06-08T05:35:03.828Z,968.04
2018-06-08T05:36:03.843Z,968.06
2018-06-08T05:37:03.891Z,968.05
2018-06-08T05:38:03.962Z,968.04
2018-06-08T05:39:03.995Z,968.02
2018-06-08T05:40:04.042Z,968.06
2018-06-08T05:41:04.096Z,968.07
2018-06-08T05:42:04.170Z,968.07
2018-06-08T05:43:04.196Z,968.09
2018-06-08T05:44:04.269Z,968.09
2018-06-08T05:45:04.295Z,968.10
2018-06-08T05:46:04.348Z,968.11
2018-06-08T05:47:04.399Z,968.11
2018-06-08T05:48:04.492Z,968.09
2018-06-08T05:49:04.531Z,968.09
2018-06-08T05:50:04.551Z,968.06
2018-06-08T05:51:04.613Z,968.08
2018-06-08T05:52:04.652Z,968.03
2018-06-08T05:53:04.703Z,968.03
2018-06-08T05:54:04.776Z,968.06
2018-06-08T05:55:04.804Z,968.03
2018-06-08T05:56:04.858Z,968.09
2018-06-08T05:57:04.907Z,968.08
2018-06-08T05:58:04.962Z,968.09
2018-06-08T05:59:05.034Z,968.09
2018-06-08T06:00:05.085Z,968.10
2018-06-08T06:01:05.137Z,968.08
2018-06-08T06:02:05.163Z,968.12
2018-06-08T06:03:05.214Z,968.10
2018-06-08T06:04:05.267Z,968.13
2018-06-08T06:05:05.338Z,968.15
2018-06-08T06:06:05.371Z,968.11
2018-06-08T06:07:05.417Z,968.14
2018-06-08T06:08:05.473Z,968.11
2018-06-08T06:09:05.521Z,968.09
2018-06-08T06:10:05.597Z,968.07
2018-06-08T06:11:05.626Z,968.09
2018-06-08T06:12:05.673Z,968.14
2018-06-08T06:13:05.724Z,968.15
2018-06-08T06:14:05.775Z,968.07
2018-06-08T06:15:05.849Z,968.11
2018-06-08T06:16:05.903Z,968.10
2018-06-08T06:17:05.930Z,968.12
2018-06-08T06:18:05.979Z,968.07
2018-06-08T06:19:06.031Z,968.05
2018-06-08T06:20:08.010Z,968.05
2018-06-08T06:21:06.175Z,968.05
2018-06-08T06:22:06.185Z,968.04
2018-06-08T06:23:06.235Z,968.04
2018-06-08T06:24:06.292Z,967.99
2018-06-08T06:25:06.339Z,967.96
2018-06-08T06:26:06.431Z,968.00
2018-06-08T06:27:06.442Z,967.99
2018-06-08T06:28:06.490Z,967.98
2018-06-08T06:29:06.540Z,967.99
2018-06-08T06:30:06.595Z,967.97
2018-06-08T06:31:06.672Z,967.96
2018-06-08T06:32:06.719Z,967.96
2018-06-08T06:33:06.743Z,967.94
2018-06-08T06:34:06.801Z,967.91
2018-06-08T06:35:06.848Z,967.91
2018-06-08T06:36:06.927Z,967.87
2018-06-08T06:37:06.949Z,967.87
2018-06-08T06:38:07.819Z,967.86
2018-06-08T06:39:07.053Z,967.83
2018-06-08T06:40:07.102Z,967.86
2018-06-08T06:41:07.183Z,967.77
2018-06-08T06:42:07.207Z,967.81
2018-06-08T06:43:07.255Z,967.81
2018-06-08T06:44:07.309Z,967.77
2018-06-08T06:45:07.358Z,967.78
2018-06-08T06:46:07.434Z,967.75
2018-06-08T06:47:07.489Z,967.74
2018-06-08T06:48:07.513Z,967.72
2018-06-08T06:49:07.564Z,967.71
2018-06-08T06:50:07.617Z,967.72
2018-06-08T06:51:07.668Z,967.70
2018-06-08T06:52:07.747Z,967.68
2018-06-08T06:53:07.781Z,967.63
2018-06-08T06:54:07.827Z,967.65
2018-06-08T06:55:07.879Z,967.68
2018-06-08T06:56:07.940Z,967.61
2018-06-08T06:57:08.007Z,967.69
2018-06-08T06:58:08.035Z,967.65
2018-06-08T06:59:08.088Z,967.62
2018-06-08T07:00:08.145Z,967.63
2018-06-08T07:01:08.191Z,967.61
2018-06-08T07:02:08.265Z,967.61
2018-06-08T07:03:08.299Z,967.59
2018-06-08T07:04:08.351Z,967.57
2018-06-08T07:05:08.401Z,967.55
2018-06-08T07:06:08.458Z,967.52
2018-06-08T07:07:08.534Z,967.55
2018-06-08T07:08:08.584Z,967.52
2018-06-08T07:09:08.620Z,967.54
2018-06-08T07:10:08.669Z,967.51
2018-06-08T07:11:08.722Z,967.54
2018-06-08T07:12:08.775Z,967.60
2018-06-08T07:13:08.851Z,967.58
2018-06-08T07:14:08.905Z,967.60
2018-06-08T07:15:08.935Z,967.57
2018-06-08T07:16:08.990Z,967.56
2018-06-08T07:17:09.040Z,967.59
2018-06-08T07:18:09.093Z,967.56
2018-06-08T07:19:09.174Z,967.53
2018-06-08T07:20:09.204Z,967.55
2018-06-08T07:21:09.255Z,967.51
2018-06-08T07:22:09.309Z,967.52
2018-06-08T07:23:09.372Z,967.55
2018-06-08T07:24:09.437Z,967.50
2018-06-08T07:25:09.468Z,967.53
2018-06-08T07:26:09.520Z,967.53
2018-06-08T07:27:09.575Z,967.55
2018-06-08T07:28:09.626Z,967.58
2018-06-08T07:29:09.863Z,967.58
2018-06-08T07:30:09.735Z,967.56
2018-06-08T07:31:09.784Z,967.55
2018-06-08T07:32:09.836Z,967.56
2018-06-08T07:33:09.887Z,967.50
2018-06-08T07:34:09.969Z,967.53
2018-06-08T07:35:09.997Z,967.48
2018-06-08T07:36:10.050Z,967.44
2018-06-08T07:37:10.099Z,967.49
2018-06-08T07:38:10.152Z,967.50
2018-06-08T07:39:10.232Z,967.47
2018-06-08T07:40:10.333Z,967.52
2018-06-08T07:41:10.379Z,967.54
2018-06-08T07:42:10.363Z,967.52
2018-06-08T07:43:10.417Z,967.53
2018-06-08T07:44:10.471Z,967.52
2018-06-08T07:45:10.524Z,967.50
2018-06-08T07:46:10.603Z,967.54
2018-06-08T07:47:10.627Z,967.49
2018-06-08T07:48:10.683Z,967.54
2018-06-08T07:49:10.773Z,967.52
2018-06-08T07:50:10.789Z,967.55
2018-06-08T07:51:10.864Z,967.53
2018-06-08T07:52:10.894Z,967.54
2018-06-08T07:53:10.947Z,967.55
2018-06-08T07:54:10.997Z,967.58
2018-06-08T07:55:11.051Z,967.59
2018-06-08T07:56:11.137Z,967.58
2018-06-08T07:57:11.159Z,967.51
2018-06-08T07:58:11.217Z,967.54
2018-06-08T07:59:11.264Z,967.57
2018-06-08T08:00:11.316Z,967.60
2018-06-08T08:01:11.395Z,967.55
2018-06-08T08:02:11.421Z,967.53
2018-06-08T08:03:11.473Z,967.53
2018-06-08T08:04:11.526Z,967.52
2018-06-08T08:05:11.579Z,967.53
2018-06-08T08:06:11.656Z,967.54
2018-06-08T08:07:11.686Z,967.48
2018-06-08T08:08:11.738Z,967.55
2018-06-08T08:09:11.830Z,967.58
2018-06-08T08:10:11.844Z,967.55
2018-06-08T08:11:11.926Z,967.56
2018-06-08T08:12:11.948Z,967.56
2018-06-08T08:13:12.000Z,967.57
2018-06-08T08:14:12.052Z,967.58
2018-06-08T08:15:12.108Z,967.64
2018-06-08T08:16:12.190Z,967.64
2018-06-08T08:17:12.245Z,967.65
2018-06-08T08:18:12.265Z,967.67
2018-06-08T08:19:12.357Z,967.69
2018-06-08T08:20:12.374Z,967.70
2018-06-08T08:21:12.450Z,967.67
2018-06-08T08:22:12.504Z,967.69
2018-06-08T08:23:12.532Z,967.71
2018-06-08T08:24:12.584Z,967.67
2018-06-08T08:25:12.638Z,967.71
2018-06-08T08:26:12.692Z,967.64
2018-06-08T08:27:12.775Z,967.67
2018-06-08T08:28:12.798Z,967.71
2018-06-08T08:29:12.856Z,967.67
2018-06-08T08:30:12.906Z,967.63
2018-06-08T08:31:12.957Z,967.68
2018-06-08T08:32:13.037Z,967.63
2018-06-08T08:33:13.086Z,967.63
2018-06-08T08:34:13.132Z,967.60
2018-06-08T08:35:13.173Z,967.62
2018-06-08T08:36:13.230Z,967.56
2018-06-08T08:37:14.059Z,967.54
2018-06-08T08:38:13.356Z,967.57
2018-06-08T08:39:13.384Z,967.56
2018-06-08T08:40:13.436Z,967.57
2018-06-08T08:41:13.489Z,967.55
2018-06-08T08:42:13.544Z,967.57
2018-06-08T08:43:13.619Z,967.56
2018-06-08T08:44:13.654Z,967.57
2018-06-08T08:45:13.703Z,967.56
2018-06-08T08:46:13.755Z,967.53
2018-06-08T08:47:13.812Z,967.49
2018-06-08T08:48:13.898Z,967.48
2018-06-08T08:49:13.917Z,967.51
2018-06-08T08:50:13.972Z,967.50
2018-06-08T08:51:14.029Z,967.54
2018-06-08T08:52:14.078Z,967.48
2018-06-08T08:53:14.153Z,967.48
2018-06-08T08:54:14.185Z,967.44
2018-06-08T08:55:14.239Z,967.43
2018-06-08T08:56:14.293Z,967.40
2018-06-08T08:57:14.348Z,967.41
2018-06-08T08:58:14.428Z,967.38
2018-06-08T08:59:14.455Z,967.38
2018-06-08T09:00:14.588Z,967.41
2018-06-08T09:01:14.561Z,967.39
2018-06-08T09:02:14.620Z,967.46
2018-06-08T09:03:14.671Z,967.44
2018-06-08T09:04:14.725Z,967.45
2018-06-08T09:05:14.804Z,967.50
2018-06-08T09:06:14.842Z,967.48
2018-06-08T09:07:14.891Z,967.47
2018-06-08T09:08:14.950Z,967.45
2018-06-08T09:09:15.021Z,967.46
2018-06-08T09:10:15.060Z,967.49
2018-06-08T09:11:15.108Z,967.49
2018-06-08T09:12:15.161Z,967.48
2018-06-08T09:13:15.214Z,967.49
2018-06-08T09:14:15.302Z,967.47
2018-06-08T09:15:15.322Z,967.43
2018-06-08T09:16:15.377Z,967.45
2018-06-08T09:17:15.431Z,967.45
2018-06-08T09:18:15.486Z,967.39
2018-06-08T09:20:51.975Z,967.39
2018-06-08T09:21:52.032Z,967.35
2018-06-08T09:22:52.061Z,967.35
2018-06-08T09:23:52.116Z,967.37
2018-06-08T09:24:52.190Z,967.39
2018-06-08T09:25:52.225Z,967.42
2018-06-08T09:26:52.275Z,967.43
2018-06-08T09:27:52.330Z,967.44
2018-06-08T09:28:52.387Z,967.44
2018-06-08T09:29:52.475Z,967.40
2018-06-08T09:30:52.496Z,967.40
2018-06-08T09:31:52.549Z,967.40
2018-06-08T09:32:52.612Z,967.41
2018-06-08T09:33:52.661Z,967.44
2018-06-08T09:34:52.739Z,967.42
2018-06-08T09:35:52.768Z,967.42
2018-06-08T09:36:52.824Z,967.42
2018-06-08T09:37:52.911Z,967.38
2018-06-08T09:38:52.940Z,967.37
2018-06-08T09:39:53.044Z,967.36
2018-06-08T09:40:53.045Z,967.33
2018-06-08T09:41:53.100Z,967.31
2018-06-08T09:42:53.178Z,967.22
2018-06-08T09:43:53.211Z,967.21
2018-06-08T09:44:53.267Z,967.18
2018-06-08T09:45:53.403Z,967.19
2018-06-08T09:46:53.377Z,967.18
2018-06-08T09:47:53.432Z,967.18
2018-06-08T09:48:53.486Z,967.18
2018-06-08T09:49:53.542Z,967.15
2018-06-08T09:50:53.638Z,967.18
2018-06-08T09:51:53.660Z,967.18
2018-06-08T09:52:53.713Z,967.19
2018-06-08T09:53:53.767Z,967.14
2018-06-08T09:54:53.819Z,967.10
2018-06-08T09:55:53.896Z,967.10
2018-06-08T09:56:53.962Z,967.07
2018-06-08T09:57:53.985Z,967.08
2018-06-08T09:58:54.043Z,967.05
2018-06-08T09:59:54.098Z,967.04
2018-06-08T10:00:54.158Z,966.98
2018-06-08T10:01:54.244Z,966.96
2018-06-08T10:02:54.263Z,966.98
2018-06-08T10:03:54.323Z,966.94
2018-06-08T10:04:54.373Z,966.93
2018-06-08T10:05:54.430Z,966.86
2018-06-08T10:06:54.510Z,966.92
2018-06-08T10:07:54.542Z,966.93
2018-06-08T10:08:54.599Z,966.94
2018-06-08T10:09:54.653Z,966.90
2018-06-08T10:10:54.717Z,966.88
2018-06-08T10:11:54.794Z,966.86
2018-06-08T10:12:54.823Z,966.88
2018-06-08T10:13:54.878Z,966.85
2018-06-08T10:14:54.936Z,966.88
2018-06-08T10:15:54.993Z,966.91
2018-06-08T10:16:55.096Z,966.90
2018-06-08T10:17:55.101Z,966.79
2018-06-08T10:18:55.162Z,966.79
2018-06-08T10:19:55.216Z,966.78
2018-06-08T10:20:55.296Z,966.81
2018-06-08T10:21:55.404Z,966.74
2018-06-08T10:22:55.388Z,966.79
2018-06-08T10:23:55.472Z,966.79
2018-06-08T10:24:55.500Z,966.80
2018-06-08T10:25:55.561Z,966.78
2018-06-08T10:26:55.617Z,966.73
2018-06-08T10:27:55.672Z,966.78
2018-06-08T10:28:55.759Z,966.76
2018-06-08T10:29:55.791Z,966.78
2018-06-08T10:30:55.848Z,966.79
2018-06-08T10:31:55.904Z,966.71
2018-06-08T10:32:55.962Z,966.72
2018-06-08T10:33:56.051Z,966.73
2018-06-08T10:34:56.078Z,966.72
2018-06-08T10:35:56.135Z,966.69
2018-06-08T10:36:56.192Z,966.68
2018-06-08T10:37:56.252Z,966.72
2018-06-08T10:38:56.336Z,966.64
2018-06-08T10:39:56.408Z,966.63
2018-06-08T10:40:56.430Z,966.64
2018-06-08T10:41:56.480Z,966.61
2018-06-08T10:42:56.535Z,966.67
2018-06-08T10:43:56.614Z,966.67
2018-06-08T10:44:56.672Z,966.67
2018-06-08T10:45:56.703Z,966.69
2018-06-08T10:46:56.762Z,966.69
2018-06-08T10:47:56.819Z,966.66
2018-06-08T10:48:56.878Z,966.68
2018-06-08T10:49:56.957Z,966.66
2018-06-08T10:50:56.988Z,966.68
2018-06-08T10:51:57.043Z,966.64
2018-06-08T10:52:57.108Z,966.64
2018-06-08T10:53:57.162Z,966.63
2018-06-08T10:54:57.236Z,966.63
2018-06-08T10:55:57.291Z,966.66
2018-06-08T10:56:57.322Z,966.57
2018-06-08T10:57:57.385Z,966.57
2018-06-08T10:58:57.437Z,966.53
2018-06-08T10:59:57.494Z,966.62
2018-06-08T11:00:57.578Z,966.48
2018-06-08T11:01:57.603Z,966.48
2018-06-08T11:02:57.661Z,966.42
2018-06-08T11:03:57.721Z,966.39
2018-06-08T11:04:57.771Z,966.42
2018-06-08T11:05:57.855Z,966.41
2018-06-08T11:06:57.887Z,966.39
2018-06-08T11:07:57.940Z,966.39
2018-06-08T11:08:57.997Z,966.37
2018-06-08T11:09:58.052Z,966.33
2018-06-08T11:10:58.151Z,966.33
2018-06-08T11:11:58.166Z,966.34
2018-06-08T11:12:58.221Z,966.28
2018-06-08T11:13:58.281Z,966.35
2018-06-08T11:14:58.333Z,966.30
2018-06-08T11:15:58.428Z,966.27
2018-06-08T11:16:58.447Z,966.18
2018-06-08T11:17:58.501Z,966.19
2018-06-08T11:18:58.560Z,966.12
2018-06-08T11:19:58.702Z,966.12
2018-06-08T11:20:58.706Z,966.11
2018-06-08T11:21:58.754Z,966.05
2018-06-08T11:22:58.784Z,966.07
2018-06-08T11:23:58.839Z,966.06
2018-06-08T11:24:58.897Z,966.04
2018-06-08T11:25:58.957Z,966.01
2018-06-08T11:26:59.073Z,965.97
2018-06-08T11:27:59.068Z,965.94
2018-06-08T11:28:59.132Z,965.94
2018-06-08T11:29:59.183Z,965.93
2018-06-08T11:30:59.238Z,965.88
2018-06-08T11:31:59.331Z,965.89
2018-06-08T11:32:59.352Z,965.85
2018-06-08T11:33:59.411Z,965.87
2018-06-08T11:34:59.468Z,965.80
2018-06-08T11:35:59.528Z,965.83
2018-06-08T11:36:59.609Z,965.79
2018-06-08T11:37:59.643Z,965.78
2018-06-08T11:38:59.701Z,965.78
2018-06-08T11:39:59.755Z,965.77
2018-06-08T11:40:59.815Z,965.72
2018-06-08T11:41:59.916Z,965.76
2018-06-08T11:42:59.933Z,965.71
2018-06-08T11:43:59.995Z,965.63
2018-06-08T11:45:00.065Z,965.66
2018-06-08T11:46:00.109Z,965.67
2018-06-08T11:47:00.194Z,965.66
2018-06-08T11:48:00.223Z,965.66
2018-06-08T11:49:00.279Z,965.65
2018-06-08T11:50:00.343Z,965.63
2018-06-08T11:51:00.394Z,965.59
2018-06-08T11:52:00.482Z,965.56
2018-06-08T11:53:00.536Z,965.60
2018-06-08T11:54:00.574Z,965.56
2018-06-08T11:55:00.627Z,965.60
2018-06-08T11:56:00.683Z,965.59
2018-06-08T11:57:00.742Z,965.55
2018-06-08T11:58:00.830Z,965.55
2018-06-08T11:59:00.857Z,965.51
2018-06-08T12:00:00.914Z,965.55
2018-06-08T12:01:00.976Z,965.53
2018-06-08T12:02:01.034Z,965.49
2018-06-08T12:03:01.128Z,965.53
2018-06-08T12:04:01.149Z,965.51
2018-06-08T12:05:01.208Z,965.51
2018-06-08T12:06:01.269Z,965.52
2018-06-08T12:07:01.330Z,965.50
2018-06-08T12:08:01.424Z,965.50
2018-06-08T12:09:01.471Z,965.52
2018-06-08T12:10:01.505Z,965.53
2018-06-08T12:11:01.564Z,965.53
2018-06-08T12:12:01.623Z,965.50
2018-06-08T12:13:01.712Z,965.56
2018-06-08T12:14:01.737Z,965.54
2018-06-08T12:15:01.799Z,965.54
2018-06-08T12:16:01.856Z,965.50
2018-06-08T12:17:01.971Z,965.53
2018-06-08T12:18:02.006Z,965.47
2018-06-08T12:19:02.061Z,965.45
2018-06-08T12:20:02.094Z,965.43
2018-06-08T12:21:02.151Z,965.40
2018-06-08T12:22:02.221Z,965.41
2018-06-08T12:23:02.268Z,965.39
2018-06-08T12:24:02.365Z,965.43
2018-06-08T12:25:02.388Z,965.41
2018-06-08T12:26:02.450Z,965.37
2018-06-08T12:27:02.504Z,965.37
2018-06-08T12:28:02.568Z,965.40
2018-06-08T12:29:02.661Z,965.34
2018-06-08T12:30:02.684Z,965.32
2018-06-08T12:31:02.740Z,965.32